sensor_id;sensor_type;location;lat;lon;timestamp;P1;durP1;ratioP1;P2;durP2;ratioP2
13805;SDS011;6974;53.606;9.872;2022-10-22T00:01:25;21.33;;;19.13;;
13805;SDS011;6974;53.606;9.872;2022-10-22T00:03:52;23.40;;;20.53;;
13805;SDS011;6974;53.606;9.872;2022-10-22T00:06:19;23.73;;;19.67;;
13805;SDS011;6974;53.606;9.872;2022-10-22T00:08:46;30.40;;;22.00;;
13805;SDS011;6974;53.606;9.872;2022-10-22T00:11:14;23.33;;;20.67;;
13805;SDS011;6974;53.606;9.872;2022-10-22T00:13:43;22.53;;;19.90;;
13805;SDS011;6974;53.606;9.872;2022-10-22T00:16:11;22.80;;;19.40;;
13805;SDS011;6974;53.606;9.872;2022-10-22T00:18:38;23.63;;;19.63;;
13805;SDS011;6974;53.606;9.872;2022-10-22T00:21:05;22.70;;;18.67;;
13805;SDS011;6974;53.606;9.872;2022-10-22T00:23:33;22.70;;;19.60;;
13805;SDS011;6974;53.606;9.872;2022-10-22T00:25:59;22.50;;;19.93;;
13805;SDS011;6974;53.606;9.872;2022-10-22T00:28:28;22.97;;;20.17;;
13805;SDS011;6974;53.606;9.872;2022-10-22T00:30:56;24.07;;;19.57;;
13805;SDS011;6974;53.606;9.872;2022-10-22T00:33:23;22.60;;;20.20;;
13805;SDS011;6974;53.606;9.872;2022-10-22T00:35:50;22.77;;;18.77;;
13805;SDS011;6974;53.606;9.872;2022-10-22T00:38:17;21.73;;;18.43;;
13805;SDS011;6974;53.606;9.872;2022-10-22T00:40:43;19.63;;;17.63;;
13805;SDS011;6974;53.606;9.872;2022-10-22T00:43:11;25.93;;;19.33;;
13805;SDS011;6974;53.606;9.872;2022-10-22T00:45:40;21.00;;;18.50;;
13805;SDS011;6974;53.606;9.872;2022-10-22T00:48:07;24.53;;;18.80;;
13805;SDS011;6974;53.606;9.872;2022-10-22T00:50:37;22.60;;;19.87;;
13805;SDS011;6974;53.606;9.872;2022-10-22T00:53:07;23.47;;;19.03;;
13805;SDS011;6974;53.606;9.872;2022-10-22T00:55:38;27.17;;;22.03;;
13805;SDS011;6974;53.606;9.872;2022-10-22T00:58:06;24.07;;;21.23;;
13805;SDS011;6974;53.606;9.872;2022-10-22T01:00:33;22.27;;;19.87;;
13805;SDS011;6974;53.606;9.872;2022-10-22T01:03:02;21.47;;;19.10;;
13805;SDS011;6974;53.606;9.872;2022-10-22T01:05:30;20.40;;;18.27;;
13805;SDS011;6974;53.606;9.872;2022-10-22T01:08:03;27.87;;;21.53;;
13805;SDS011;6974;53.606;9.872;2022-10-22T01:10:37;29.33;;;22.70;;
13805;SDS011;6974;53.606;9.872;2022-10-22T01:13:16;31.67;;;24.23;;
13805;SDS011;6974;53.606;9.872;2022-10-22T01:15:53;28.00;;;22.10;;
13805;SDS011;6974;53.606;9.872;2022-10-22T01:18:28;25.13;;;21.30;;
13805;SDS011;6974;53.606;9.872;2022-10-22T01:21:14;22.93;;;19.97;;
13805;SDS011;6974;53.606;9.872;2022-10-22T01:26:56;21.03;;;18.73;;
13805;SDS011;6974;53.606;9.872;2022-10-22T01:29:33;22.50;;;19.47;;
13805;SDS011;6974;53.606;9.872;2022-10-22T01:32:06;19.43;;;16.83;;
13805;SDS011;6974;53.606;9.872;2022-10-22T01:34:37;19.27;;;16.70;;
13805;SDS011;6974;53.606;9.872;2022-10-22T01:37:06;19.97;;;17.43;;
13805;SDS011;6974;53.606;9.872;2022-10-22T01:39:34;18.90;;;16.47;;
13805;SDS011;6974;53.606;9.872;2022-10-22T01:42:02;20.33;;;17.17;;
13805;SDS011;6974;53.606;9.872;2022-10-22T01:44:30;17.97;;;15.77;;
13805;SDS011;6974;53.606;9.872;2022-10-22T01:47:05;17.83;;;15.93;;
13805;SDS011;6974;53.606;9.872;2022-10-22T01:49:46;17.93;;;16.03;;
13805;SDS011;6974;53.606;9.872;2022-10-22T01:52:34;17.93;;;16.03;;
13805;SDS011;6974;53.606;9.872;2022-10-22T01:55:13;18.00;;;16.10;;
13805;SDS011;6974;53.606;9.872;2022-10-22T01:57:49;18.40;;;16.47;;
13805;SDS011;6974;53.606;9.872;2022-10-22T02:00:24;19.00;;;17.00;;
13805;SDS011;6974;53.606;9.872;2022-10-22T02:02:54;18.47;;;16.57;;
13805;SDS011;6974;53.606;9.872;2022-10-22T02:05:27;20.40;;;16.67;;
13805;SDS011;6974;53.606;9.872;2022-10-22T02:08:00;19.43;;;16.60;;
13805;SDS011;6974;53.606;9.872;2022-10-22T02:10:30;20.57;;;18.50;;
13805;SDS011;6974;53.606;9.872;2022-10-22T02:12:58;21.73;;;18.27;;
13805;SDS011;6974;53.606;9.872;2022-10-22T02:15:26;19.37;;;16.93;;
13805;SDS011;6974;53.606;9.872;2022-10-22T02:17:58;20.63;;;18.43;;
13805;SDS011;6974;53.606;9.872;2022-10-22T02:20:26;18.07;;;16.17;;
13805;SDS011;6974;53.606;9.872;2022-10-22T02:22:56;20.00;;;16.77;;
13805;SDS011;6974;53.606;9.872;2022-10-22T02:25:26;18.77;;;16.10;;
13805;SDS011;6974;53.606;9.872;2022-10-22T02:27:57;18.70;;;15.87;;
13805;SDS011;6974;53.606;9.872;2022-10-22T02:30:33;18.43;;;16.60;;
13805;SDS011;6974;53.606;9.872;2022-10-22T02:33:05;16.10;;;14.47;;
13805;SDS011;6974;53.606;9.872;2022-10-22T02:35:37;17.70;;;16.00;;
13805;SDS011;6974;53.606;9.872;2022-10-22T02:38:06;16.20;;;14.50;;
13805;SDS011;6974;53.606;9.872;2022-10-22T02:40:34;21.13;;;16.37;;
13805;SDS011;6974;53.606;9.872;2022-10-22T02:43:02;18.27;;;15.80;;
13805;SDS011;6974;53.606;9.872;2022-10-22T02:45:30;18.80;;;15.70;;
13805;SDS011;6974;53.606;9.872;2022-10-22T02:47:58;20.20;;;16.70;;
13805;SDS011;6974;53.606;9.872;2022-10-22T02:50:26;18.03;;;16.13;;
13805;SDS011;6974;53.606;9.872;2022-10-22T02:52:53;17.77;;;15.87;;
13805;SDS011;6974;53.606;9.872;2022-10-22T02:55:20;17.53;;;15.57;;
13805;SDS011;6974;53.606;9.872;2022-10-22T02:57:47;20.10;;;17.70;;
13805;SDS011;6974;53.606;9.872;2022-10-22T03:00:14;18.37;;;16.47;;
13805;SDS011;6974;53.606;9.872;2022-10-22T03:02:41;17.43;;;15.53;;
13805;SDS011;6974;53.606;9.872;2022-10-22T03:05:08;17.97;;;16.07;;
13805;SDS011;6974;53.606;9.872;2022-10-22T03:07:37;23.57;;;17.60;;
13805;SDS011;6974;53.606;9.872;2022-10-22T03:10:04;18.50;;;16.40;;
13805;SDS011;6974;53.606;9.872;2022-10-22T03:12:31;19.20;;;16.53;;
13805;SDS011;6974;53.606;9.872;2022-10-22T03:14:58;20.47;;;16.73;;
13805;SDS011;6974;53.606;9.872;2022-10-22T03:17:25;16.93;;;15.00;;
13805;SDS011;6974;53.606;9.872;2022-10-22T03:19:52;24.70;;;18.67;;
13805;SDS011;6974;53.606;9.872;2022-10-22T03:22:19;25.00;;;19.47;;
13805;SDS011;6974;53.606;9.872;2022-10-22T03:24:51;20.90;;;17.47;;
13805;SDS011;6974;53.606;9.872;2022-10-22T03:27:20;20.10;;;16.43;;
13805;SDS011;6974;53.606;9.872;2022-10-22T03:29:48;22.10;;;18.07;;
13805;SDS011;6974;53.606;9.872;2022-10-22T03:32:16;21.70;;;17.43;;
13805;SDS011;6974;53.606;9.872;2022-10-22T03:34:43;21.63;;;17.77;;
13805;SDS011;6974;53.606;9.872;2022-10-22T03:37:09;24.57;;;18.87;;
13805;SDS011;6974;53.606;9.872;2022-10-22T03:39:37;24.83;;;19.00;;
13805;SDS011;6974;53.606;9.872;2022-10-22T03:42:05;22.67;;;18.80;;
13805;SDS011;6974;53.606;9.872;2022-10-22T03:44:34;23.00;;;19.27;;
13805;SDS011;6974;53.606;9.872;2022-10-22T03:47:02;21.33;;;18.63;;
13805;SDS011;6974;53.606;9.872;2022-10-22T03:49:29;20.77;;;18.53;;
13805;SDS011;6974;53.606;9.872;2022-10-22T03:51:55;23.40;;;19.97;;
13805;SDS011;6974;53.606;9.872;2022-10-22T03:54:22;24.07;;;20.03;;
13805;SDS011;6974;53.606;9.872;2022-10-22T03:56:49;20.60;;;18.13;;
13805;SDS011;6974;53.606;9.872;2022-10-22T03:59:17;21.30;;;18.30;;
13805;SDS011;6974;53.606;9.872;2022-10-22T04:01:44;23.33;;;19.17;;
13805;SDS011;6974;53.606;9.872;2022-10-22T04:04:11;23.47;;;19.47;;
13805;SDS011;6974;53.606;9.872;2022-10-22T04:06:37;27.10;;;19.53;;
13805;SDS011;6974;53.606;9.872;2022-10-22T04:09:04;23.40;;;20.57;;
13805;SDS011;6974;53.606;9.872;2022-10-22T04:11:31;26.10;;;22.20;;
13805;SDS011;6974;53.606;9.872;2022-10-22T04:13:58;26.27;;;22.33;;
13805;SDS011;6974;53.606;9.872;2022-10-22T04:16:26;25.00;;;22.37;;
13805;SDS011;6974;53.606;9.872;2022-10-22T04:18:55;32.40;;;26.17;;
13805;SDS011;6974;53.606;9.872;2022-10-22T04:21:22;29.87;;;25.13;;
13805;SDS011;6974;53.606;9.872;2022-10-22T04:23:50;32.53;;;25.10;;
13805;SDS011;6974;53.606;9.872;2022-10-22T04:26:17;30.20;;;24.70;;
13805;SDS011;6974;53.606;9.872;2022-10-22T04:28:46;28.40;;;23.90;;
13805;SDS011;6974;53.606;9.872;2022-10-22T04:31:14;32.97;;;25.70;;
13805;SDS011;6974;53.606;9.872;2022-10-22T04:33:43;31.70;;;25.53;;
13805;SDS011;6974;53.606;9.872;2022-10-22T04:36:11;28.13;;;24.57;;
13805;SDS011;6974;53.606;9.872;2022-10-22T04:38:41;30.63;;;25.67;;
13805;SDS011;6974;53.606;9.872;2022-10-22T04:41:09;30.70;;;26.03;;
13805;SDS011;6974;53.606;9.872;2022-10-22T04:43:37;28.93;;;24.77;;
13805;SDS011;6974;53.606;9.872;2022-10-22T04:46:04;31.80;;;24.77;;
13805;SDS011;6974;53.606;9.872;2022-10-22T04:48:33;34.17;;;26.30;;
13805;SDS011;6974;53.606;9.872;2022-10-22T04:51:01;35.30;;;26.37;;
13805;SDS011;6974;53.606;9.872;2022-10-22T04:53:28;33.53;;;24.67;;
13805;SDS011;6974;53.606;9.872;2022-10-22T04:56:04;36.17;;;27.43;;
13805;SDS011;6974;53.606;9.872;2022-10-22T04:58:33;37.53;;;29.13;;
13805;SDS011;6974;53.606;9.872;2022-10-22T05:00:59;36.30;;;28.10;;
13805;SDS011;6974;53.606;9.872;2022-10-22T05:03:26;38.57;;;28.37;;
13805;SDS011;6974;53.606;9.872;2022-10-22T05:05:53;34.77;;;26.97;;
13805;SDS011;6974;53.606;9.872;2022-10-22T05:08:21;32.87;;;26.77;;
13805;SDS011;6974;53.606;9.872;2022-10-22T05:10:48;36.00;;;25.80;;
13805;SDS011;6974;53.606;9.872;2022-10-22T05:13:15;33.83;;;27.33;;
13805;SDS011;6974;53.606;9.872;2022-10-22T05:15:41;33.90;;;26.77;;
13805;SDS011;6974;53.606;9.872;2022-10-22T05:18:08;32.03;;;26.73;;
13805;SDS011;6974;53.606;9.872;2022-10-22T05:20:37;34.30;;;27.10;;
13805;SDS011;6974;53.606;9.872;2022-10-22T05:23:04;36.60;;;27.13;;
13805;SDS011;6974;53.606;9.872;2022-10-22T05:25:35;48.20;;;28.27;;
13805;SDS011;6974;53.606;9.872;2022-10-22T05:28:02;35.37;;;27.23;;
13805;SDS011;6974;53.606;9.872;2022-10-22T05:30:29;35.10;;;27.77;;
13805;SDS011;6974;53.606;9.872;2022-10-22T05:32:56;33.03;;;26.73;;
13805;SDS011;6974;53.606;9.872;2022-10-22T05:35:23;34.37;;;27.87;;
13805;SDS011;6974;53.606;9.872;2022-10-22T05:37:49;32.47;;;26.33;;
13805;SDS011;6974;53.606;9.872;2022-10-22T05:40:16;30.43;;;24.53;;
13805;SDS011;6974;53.606;9.872;2022-10-22T05:42:44;27.40;;;24.40;;
13805;SDS011;6974;53.606;9.872;2022-10-22T05:45:11;29.00;;;25.07;;
13805;SDS011;6974;53.606;9.872;2022-10-22T05:47:38;27.10;;;22.93;;
13805;SDS011;6974;53.606;9.872;2022-10-22T05:50:05;27.70;;;23.87;;
13805;SDS011;6974;53.606;9.872;2022-10-22T05:52:32;25.93;;;22.90;;
13805;SDS011;6974;53.606;9.872;2022-10-22T05:54:59;27.63;;;24.63;;
13805;SDS011;6974;53.606;9.872;2022-10-22T05:57:26;29.33;;;24.27;;
13805;SDS011;6974;53.606;9.872;2022-10-22T05:59:54;27.27;;;23.37;;
13805;SDS011;6974;53.606;9.872;2022-10-22T06:02:20;24.37;;;21.83;;
13805;SDS011;6974;53.606;9.872;2022-10-22T06:04:47;25.67;;;22.63;;
13805;SDS011;6974;53.606;9.872;2022-10-22T06:07:14;25.43;;;22.60;;
13805;SDS011;6974;53.606;9.872;2022-10-22T06:09:41;28.10;;;23.20;;
13805;SDS011;6974;53.606;9.872;2022-10-22T06:12:08;27.97;;;23.70;;
13805;SDS011;6974;53.606;9.872;2022-10-22T06:14:37;24.23;;;21.73;;
13805;SDS011;6974;53.606;9.872;2022-10-22T06:17:05;25.10;;;20.77;;
13805;SDS011;6974;53.606;9.872;2022-10-22T06:19:32;25.07;;;22.37;;
13805;SDS011;6974;53.606;9.872;2022-10-22T06:21:59;26.43;;;23.63;;
13805;SDS011;6974;53.606;9.872;2022-10-22T06:24:26;28.10;;;23.10;;
13805;SDS011;6974;53.606;9.872;2022-10-22T06:26:52;24.53;;;21.97;;
13805;SDS011;6974;53.606;9.872;2022-10-22T06:29:19;25.80;;;23.07;;
13805;SDS011;6974;53.606;9.872;2022-10-22T06:31:46;25.87;;;23.17;;
13805;SDS011;6974;53.606;9.872;2022-10-22T06:34:14;24.10;;;21.60;;
13805;SDS011;6974;53.606;9.872;2022-10-22T06:36:43;24.73;;;22.03;;
13805;SDS011;6974;53.606;9.872;2022-10-22T06:39:10;21.77;;;19.47;;
13805;SDS011;6974;53.606;9.872;2022-10-22T06:41:38;22.13;;;19.40;;
13805;SDS011;6974;53.606;9.872;2022-10-22T06:44:05;22.20;;;19.90;;
13805;SDS011;6974;53.606;9.872;2022-10-22T06:46:32;19.93;;;17.93;;
13805;SDS011;6974;53.606;9.872;2022-10-22T06:48:59;21.50;;;19.20;;
13805;SDS011;6974;53.606;9.872;2022-10-22T06:51:29;23.50;;;21.03;;
13805;SDS011;6974;53.606;9.872;2022-10-22T06:53:56;22.73;;;20.07;;
13805;SDS011;6974;53.606;9.872;2022-10-22T06:56:25;21.23;;;18.97;;
13805;SDS011;6974;53.606;9.872;2022-10-22T06:58:53;22.13;;;19.87;;
13805;SDS011;6974;53.606;9.872;2022-10-22T07:01:22;21.53;;;19.37;;
13805;SDS011;6974;53.606;9.872;2022-10-22T07:03:50;22.63;;;19.77;;
13805;SDS011;6974;53.606;9.872;2022-10-22T07:06:18;22.10;;;19.70;;
13805;SDS011;6974;53.606;9.872;2022-10-22T07:08:47;21.83;;;19.53;;
13805;SDS011;6974;53.606;9.872;2022-10-22T07:11:15;20.07;;;17.80;;
13805;SDS011;6974;53.606;9.872;2022-10-22T07:13:42;22.03;;;18.63;;
13805;SDS011;6974;53.606;9.872;2022-10-22T07:16:10;20.70;;;18.70;;
13805;SDS011;6974;53.606;9.872;2022-10-22T07:18:37;21.90;;;19.57;;
13805;SDS011;6974;53.606;9.872;2022-10-22T07:21:06;23.77;;;20.07;;
13805;SDS011;6974;53.606;9.872;2022-10-22T07:23:33;20.57;;;18.20;;
13805;SDS011;6974;53.606;9.872;2022-10-22T07:26:02;21.43;;;19.23;;
13805;SDS011;6974;53.606;9.872;2022-10-22T07:28:31;21.80;;;19.20;;
13805;SDS011;6974;53.606;9.872;2022-10-22T07:30:58;23.87;;;19.60;;
13805;SDS011;6974;53.606;9.872;2022-10-22T07:33:25;22.17;;;19.87;;
13805;SDS011;6974;53.606;9.872;2022-10-22T07:35:56;23.33;;;20.20;;
13805;SDS011;6974;53.606;9.872;2022-10-22T07:38:23;22.80;;;20.43;;
13805;SDS011;6974;53.606;9.872;2022-10-22T07:40:50;22.23;;;19.93;;
13805;SDS011;6974;53.606;9.872;2022-10-22T07:43:19;22.70;;;20.20;;
13805;SDS011;6974;53.606;9.872;2022-10-22T07:45:47;23.63;;;19.97;;
13805;SDS011;6974;53.606;9.872;2022-10-22T07:48:13;21.50;;;19.27;;
13805;SDS011;6974;53.606;9.872;2022-10-22T07:50:41;23.13;;;20.10;;
13805;SDS011;6974;53.606;9.872;2022-10-22T07:53:07;20.63;;;18.37;;
13805;SDS011;6974;53.606;9.872;2022-10-22T07:55:34;22.43;;;18.60;;
13805;SDS011;6974;53.606;9.872;2022-10-22T07:58:01;22.57;;;19.70;;
13805;SDS011;6974;53.606;9.872;2022-10-22T08:00:29;20.87;;;18.77;;
13805;SDS011;6974;53.606;9.872;2022-10-22T08:02:56;23.23;;;19.63;;
13805;SDS011;6974;53.606;9.872;2022-10-22T08:05:23;21.07;;;18.87;;
13805;SDS011;6974;53.606;9.872;2022-10-22T08:07:50;24.40;;;19.13;;
13805;SDS011;6974;53.606;9.872;2022-10-22T08:10:17;21.20;;;18.67;;
13805;SDS011;6974;53.606;9.872;2022-10-22T08:12:43;21.53;;;19.10;;
13805;SDS011;6974;53.606;9.872;2022-10-22T08:15:10;21.80;;;19.10;;
13805;SDS011;6974;53.606;9.872;2022-10-22T08:17:38;19.63;;;17.50;;
13805;SDS011;6974;53.606;9.872;2022-10-22T08:20:05;21.63;;;18.30;;
13805;SDS011;6974;53.606;9.872;2022-10-22T08:22:33;21.47;;;19.07;;
13805;SDS011;6974;53.606;9.872;2022-10-22T08:25:00;21.83;;;18.47;;
13805;SDS011;6974;53.606;9.872;2022-10-22T08:27:26;21.80;;;18.00;;
13805;SDS011;6974;53.606;9.872;2022-10-22T08:29:53;22.70;;;19.13;;
13805;SDS011;6974;53.606;9.872;2022-10-22T08:32:20;20.93;;;18.17;;
13805;SDS011;6974;53.606;9.872;2022-10-22T08:34:48;18.97;;;16.83;;
13805;SDS011;6974;53.606;9.872;2022-10-22T08:37:15;19.13;;;17.03;;
13805;SDS011;6974;53.606;9.872;2022-10-22T08:39:41;19.10;;;17.00;;
13805;SDS011;6974;53.606;9.872;2022-10-22T08:42:16;19.07;;;16.50;;
13805;SDS011;6974;53.606;9.872;2022-10-22T08:45:02;20.90;;;17.20;;
13805;SDS011;6974;53.606;9.872;2022-10-22T08:47:40;19.07;;;16.43;;
13805;SDS011;6974;53.606;9.872;2022-10-22T08:50:28;22.87;;;16.83;;
13805;SDS011;6974;53.606;9.872;2022-10-22T08:52:58;19.03;;;15.83;;
13805;SDS011;6974;53.606;9.872;2022-10-22T08:55:28;18.07;;;15.17;;
13805;SDS011;6974;53.606;9.872;2022-10-22T08:57:58;16.17;;;14.47;;
13805;SDS011;6974;53.606;9.872;2022-10-22T09:00:30;17.30;;;14.17;;
13805;SDS011;6974;53.606;9.872;2022-10-22T09:03:06;14.03;;;12.40;;
13805;SDS011;6974;53.606;9.872;2022-10-22T09:05:54;18.43;;;13.47;;
13805;SDS011;6974;53.606;9.872;2022-10-22T09:08:26;17.57;;;15.77;;
13805;SDS011;6974;53.606;9.872;2022-10-22T09:10:54;14.43;;;12.87;;
13805;SDS011;6974;53.606;9.872;2022-10-22T09:13:26;16.53;;;12.97;;
13805;SDS011;6974;53.606;9.872;2022-10-22T09:15:54;16.53;;;13.73;;
13805;SDS011;6974;53.606;9.872;2022-10-22T09:18:34;15.03;;;13.33;;
13805;SDS011;6974;53.606;9.872;2022-10-22T09:21:11;13.97;;;11.77;;
13805;SDS011;6974;53.606;9.872;2022-10-22T09:23:48;17.30;;;12.40;;
13805;SDS011;6974;53.606;9.872;2022-10-22T09:26:21;13.33;;;11.30;;
13805;SDS011;6974;53.606;9.872;2022-10-22T09:28:48;13.23;;;11.13;;
13805;SDS011;6974;53.606;9.872;2022-10-22T09:31:16;13.20;;;10.67;;
13805;SDS011;6974;53.606;9.872;2022-10-22T09:33:45;14.87;;;10.67;;
13805;SDS011;6974;53.606;9.872;2022-10-22T09:36:19;13.53;;;10.23;;
13805;SDS011;6974;53.606;9.872;2022-10-22T09:38:48;17.73;;;11.37;;
13805;SDS011;6974;53.606;9.872;2022-10-22T09:41:17;14.60;;;9.80;;
13805;SDS011;6974;53.606;9.872;2022-10-22T09:43:45;11.27;;;9.17;;
13805;SDS011;6974;53.606;9.872;2022-10-22T09:46:14;13.53;;;9.43;;
13805;SDS011;6974;53.606;9.872;2022-10-22T09:48:43;12.47;;;9.10;;
13805;SDS011;6974;53.606;9.872;2022-10-22T09:51:14;11.37;;;8.37;;
13805;SDS011;6974;53.606;9.872;2022-10-22T09:53:46;11.37;;;8.17;;
13805;SDS011;6974;53.606;9.872;2022-10-22T09:56:22;12.97;;;8.20;;
13805;SDS011;6974;53.606;9.872;2022-10-22T09:58:51;11.20;;;7.90;;
13805;SDS011;6974;53.606;9.872;2022-10-22T10:01:21;11.43;;;7.20;;
13805;SDS011;6974;53.606;9.872;2022-10-22T10:03:50;12.07;;;7.20;;
13805;SDS011;6974;53.606;9.872;2022-10-22T10:06:19;10.10;;;7.00;;
13805;SDS011;6974;53.606;9.872;2022-10-22T10:08:47;8.43;;;6.53;;
13805;SDS011;6974;53.606;9.872;2022-10-22T10:11:16;8.13;;;7.07;;
13805;SDS011;6974;53.606;9.872;2022-10-22T10:13:51;9.13;;;6.60;;
13805;SDS011;6974;53.606;9.872;2022-10-22T10:16:30;9.23;;;5.93;;
13805;SDS011;6974;53.606;9.872;2022-10-22T10:22:06;7.43;;;5.87;;
13805;SDS011;6974;53.606;9.872;2022-10-22T10:24:44;10.37;;;6.03;;
13805;SDS011;6974;53.606;9.872;2022-10-22T10:27:25;8.30;;;5.90;;
13805;SDS011;6974;53.606;9.872;2022-10-22T10:30:00;7.27;;;5.17;;
13805;SDS011;6974;53.606;9.872;2022-10-22T10:32:46;8.47;;;4.73;;
13805;SDS011;6974;53.606;9.872;2022-10-22T10:35:33;7.73;;;4.63;;
13805;SDS011;6974;53.606;9.872;2022-10-22T10:38:12;8.67;;;4.50;;
13805;SDS011;6974;53.606;9.872;2022-10-22T10:40:53;6.90;;;4.20;;
13805;SDS011;6974;53.606;9.872;2022-10-22T10:43:27;8.30;;;4.50;;
13805;SDS011;6974;53.606;9.872;2022-10-22T10:46:04;8.10;;;4.50;;
13805;SDS011;6974;53.606;9.872;2022-10-22T10:48:44;6.53;;;4.23;;
13805;SDS011;6974;53.606;9.872;2022-10-22T10:51:25;5.33;;;3.70;;
13805;SDS011;6974;53.606;9.872;2022-10-22T10:54:10;7.17;;;4.17;;
13805;SDS011;6974;53.606;9.872;2022-10-22T10:56:50;7.20;;;4.87;;
13805;SDS011;6974;53.606;9.872;2022-10-22T10:59:24;8.23;;;4.93;;
13805;SDS011;6974;53.606;9.872;2022-10-22T11:02:08;11.60;;;4.90;;
13805;SDS011;6974;53.606;9.872;2022-10-22T11:04:54;10.00;;;4.30;;
13805;SDS011;6974;53.606;9.872;2022-10-22T11:07:30;7.60;;;4.27;;
13805;SDS011;6974;53.606;9.872;2022-10-22T11:10:05;7.07;;;4.13;;
13805;SDS011;6974;53.606;9.872;2022-10-22T11:12:40;6.13;;;4.30;;
13805;SDS011;6974;53.606;9.872;2022-10-22T11:15:15;6.77;;;4.50;;
13805;SDS011;6974;53.606;9.872;2022-10-22T11:17:51;15.67;;;5.00;;
13805;SDS011;6974;53.606;9.872;2022-10-22T11:20:23;9.50;;;4.43;;
13805;SDS011;6974;53.606;9.872;2022-10-22T11:22:54;8.70;;;4.80;;
13805;SDS011;6974;53.606;9.872;2022-10-22T11:25:28;9.50;;;4.73;;
13805;SDS011;6974;53.606;9.872;2022-10-22T11:28:00;10.27;;;5.50;;
13805;SDS011;6974;53.606;9.872;2022-10-22T11:30:31;7.83;;;4.67;;
13805;SDS011;6974;53.606;9.872;2022-10-22T11:33:01;8.33;;;4.97;;
13805;SDS011;6974;53.606;9.872;2022-10-22T11:35:32;5.47;;;4.10;;
13805;SDS011;6974;53.606;9.872;2022-10-22T11:38:01;11.33;;;5.83;;
13805;SDS011;6974;53.606;9.872;2022-10-22T11:40:32;9.43;;;4.87;;
13805;SDS011;6974;53.606;9.872;2022-10-22T11:43:03;6.70;;;4.80;;
13805;SDS011;6974;53.606;9.872;2022-10-22T11:45:33;10.27;;;4.83;;
13805;SDS011;6974;53.606;9.872;2022-10-22T11:48:05;8.57;;;4.87;;
13805;SDS011;6974;53.606;9.872;2022-10-22T11:50:44;6.83;;;5.00;;
13805;SDS011;6974;53.606;9.872;2022-10-22T11:53:18;7.30;;;5.27;;
13805;SDS011;6974;53.606;9.872;2022-10-22T11:55:56;6.77;;;5.00;;
13805;SDS011;6974;53.606;9.872;2022-10-22T11:58:29;7.00;;;4.53;;
13805;SDS011;6974;53.606;9.872;2022-10-22T12:01:16;6.50;;;4.60;;
13805;SDS011;6974;53.606;9.872;2022-10-22T12:03:49;6.60;;;4.43;;
13805;SDS011;6974;53.606;9.872;2022-10-22T12:06:18;7.83;;;4.70;;
13805;SDS011;6974;53.606;9.872;2022-10-22T12:08:50;6.30;;;4.30;;
13805;SDS011;6974;53.606;9.872;2022-10-22T12:11:26;6.13;;;4.53;;
13805;SDS011;6974;53.606;9.872;2022-10-22T12:14:02;6.30;;;4.10;;
13805;SDS011;6974;53.606;9.872;2022-10-22T12:16:40;7.10;;;4.30;;
13805;SDS011;6974;53.606;9.872;2022-10-22T12:19:14;7.67;;;4.70;;
13805;SDS011;6974;53.606;9.872;2022-10-22T12:21:44;6.00;;;4.30;;
13805;SDS011;6974;53.606;9.872;2022-10-22T12:24:13;10.73;;;4.83;;
13805;SDS011;6974;53.606;9.872;2022-10-22T12:26:45;7.27;;;4.23;;
13805;SDS011;6974;53.606;9.872;2022-10-22T12:29:14;6.13;;;4.63;;
13805;SDS011;6974;53.606;9.872;2022-10-22T12:31:42;6.30;;;4.60;;
13805;SDS011;6974;53.606;9.872;2022-10-22T12:34:13;7.10;;;4.43;;
13805;SDS011;6974;53.606;9.872;2022-10-22T12:36:42;7.93;;;4.30;;
13805;SDS011;6974;53.606;9.872;2022-10-22T12:39:10;7.63;;;3.77;;
13805;SDS011;6974;53.606;9.872;2022-10-22T12:41:39;8.43;;;4.90;;
13805;SDS011;6974;53.606;9.872;2022-10-22T12:44:10;5.97;;;4.50;;
13805;SDS011;6974;53.606;9.872;2022-10-22T12:46:39;6.00;;;4.17;;
13805;SDS011;6974;53.606;9.872;2022-10-22T12:49:09;7.03;;;4.40;;
13805;SDS011;6974;53.606;9.872;2022-10-22T12:51:40;7.90;;;4.77;;
13805;SDS011;6974;53.606;9.872;2022-10-22T12:54:08;6.33;;;4.10;;
13805;SDS011;6974;53.606;9.872;2022-10-22T12:56:40;8.10;;;4.77;;
13805;SDS011;6974;53.606;9.872;2022-10-22T12:59:10;5.87;;;4.40;;
13805;SDS011;6974;53.606;9.872;2022-10-22T13:01:42;5.87;;;4.80;;
13805;SDS011;6974;53.606;9.872;2022-10-22T13:04:20;9.77;;;4.73;;
13805;SDS011;6974;53.606;9.872;2022-10-22T13:07:04;7.93;;;5.20;;
13805;SDS011;6974;53.606;9.872;2022-10-22T13:09:42;7.43;;;4.20;;
13805;SDS011;6974;53.606;9.872;2022-10-22T13:12:10;7.23;;;4.03;;
13805;SDS011;6974;53.606;9.872;2022-10-22T13:14:42;7.40;;;4.00;;
13805;SDS011;6974;53.606;9.872;2022-10-22T13:17:11;6.50;;;4.60;;
13805;SDS011;6974;53.606;9.872;2022-10-22T13:19:44;7.23;;;4.23;;
13805;SDS011;6974;53.606;9.872;2022-10-22T13:22:26;9.27;;;4.60;;
13805;SDS011;6974;53.606;9.872;2022-10-22T13:24:56;8.10;;;4.77;;
13805;SDS011;6974;53.606;9.872;2022-10-22T13:27:25;8.37;;;4.00;;
13805;SDS011;6974;53.606;9.872;2022-10-22T13:29:54;7.43;;;4.00;;
13805;SDS011;6974;53.606;9.872;2022-10-22T13:32:26;10.77;;;4.70;;
13805;SDS011;6974;53.606;9.872;2022-10-22T13:34:56;6.57;;;3.57;;
13805;SDS011;6974;53.606;9.872;2022-10-22T13:37:24;7.77;;;3.80;;
13805;SDS011;6974;53.606;9.872;2022-10-22T13:39:51;7.17;;;4.20;;
13805;SDS011;6974;53.606;9.872;2022-10-22T13:42:18;5.67;;;3.93;;
13805;SDS011;6974;53.606;9.872;2022-10-22T13:44:45;8.30;;;4.43;;
13805;SDS011;6974;53.606;9.872;2022-10-22T13:47:16;6.93;;;4.30;;
13805;SDS011;6974;53.606;9.872;2022-10-22T13:49:51;6.47;;;4.03;;
13805;SDS011;6974;53.606;9.872;2022-10-22T13:52:24;6.63;;;3.83;;
13805;SDS011;6974;53.606;9.872;2022-10-22T13:54:54;10.17;;;4.37;;
13805;SDS011;6974;53.606;9.872;2022-10-22T13:57:21;6.10;;;4.10;;
13805;SDS011;6974;53.606;9.872;2022-10-22T13:59:48;7.13;;;3.83;;
13805;SDS011;6974;53.606;9.872;2022-10-22T14:02:16;8.47;;;4.47;;
13805;SDS011;6974;53.606;9.872;2022-10-22T14:04:44;5.27;;;4.00;;
13805;SDS011;6974;53.606;9.872;2022-10-22T14:07:11;6.07;;;3.93;;
13805;SDS011;6974;53.606;9.872;2022-10-22T14:09:39;7.83;;;4.47;;
13805;SDS011;6974;53.606;9.872;2022-10-22T14:12:09;7.87;;;4.50;;
13805;SDS011;6974;53.606;9.872;2022-10-22T14:14:37;6.53;;;4.17;;
13805;SDS011;6974;53.606;9.872;2022-10-22T14:17:03;5.17;;;3.83;;
13805;SDS011;6974;53.606;9.872;2022-10-22T14:19:32;6.67;;;4.33;;
13805;SDS011;6974;53.606;9.872;2022-10-22T14:21:58;6.30;;;4.87;;
13805;SDS011;6974;53.606;9.872;2022-10-22T14:24:25;8.07;;;4.77;;
13805;SDS011;6974;53.606;9.872;2022-10-22T14:26:52;9.83;;;4.63;;
13805;SDS011;6974;53.606;9.872;2022-10-22T14:29:19;10.33;;;4.27;;
13805;SDS011;6974;53.606;9.872;2022-10-22T14:31:45;10.50;;;4.33;;
13805;SDS011;6974;53.606;9.872;2022-10-22T14:34:13;9.93;;;4.53;;
13805;SDS011;6974;53.606;9.872;2022-10-22T14:36:42;8.33;;;4.80;;
13805;SDS011;6974;53.606;9.872;2022-10-22T14:39:08;8.13;;;4.20;;
13805;SDS011;6974;53.606;9.872;2022-10-22T14:41:35;8.63;;;4.77;;
13805;SDS011;6974;53.606;9.872;2022-10-22T14:44:02;8.47;;;4.30;;
13805;SDS011;6974;53.606;9.872;2022-10-22T14:46:29;8.40;;;5.00;;
13805;SDS011;6974;53.606;9.872;2022-10-22T14:48:56;7.17;;;4.33;;
13805;SDS011;6974;53.606;9.872;2022-10-22T14:51:23;8.90;;;4.40;;
13805;SDS011;6974;53.606;9.872;2022-10-22T14:53:51;6.77;;;3.93;;
13805;SDS011;6974;53.606;9.872;2022-10-22T14:56:18;9.47;;;6.23;;
13805;SDS011;6974;53.606;9.872;2022-10-22T14:58:46;9.70;;;6.03;;
13805;SDS011;6974;53.606;9.872;2022-10-22T15:01:13;8.20;;;5.53;;
13805;SDS011;6974;53.606;9.872;2022-10-22T15:03:40;8.03;;;4.70;;
13805;SDS011;6974;53.606;9.872;2022-10-22T15:06:07;7.27;;;4.30;;